Richmond, KY

3:36 AM EST on February 08, 2016 (GMT -0500)
City Hall | | Change Station
CLOSE
Current Station
Personal Weather Station
Location: Richmond, KY
Elevation: 974 ft
Nearby Weather Stations
Active Advisory: Winter Weather Advisory

Elev 974 ft 37.75 °N, 84.30 °W | Updated 9 seconds ago

Overcast
Overcast
45.0 °F
Feels Like 45 °F
N
2.0
Wind Variable Wind from SSW
Gusts 9.0 mph

Today
High -- | Low -- °F
--% Chance of Precip.
Yesterday
High -- | Low -- °F
Precip. -- in
Pressure 29.73 in
Visibility 10.0 miles
Clouds Overcast 5000 ft
Windchill 45 °F
Dew Point 26 °F
Humidity 48%
Rainfall 0.00 in
Snow Depth Not available.
7:35 AM 6:08 PM
Waning Crescent, 0% visible
METAR KI39 080815Z AUTO 21007KT 10SM OVC050 06/M05 A2973 RMK AO2
Pressure 29.73 in
Visibility 10.0 miles
Clouds Overcast 5000 ft
Windchill 45 °F
Dew Point 26 °F
Humidity 48%
Rainfall 0.00 in
Snow Depth Not available.
7:35 AM 6:08 PM
Waning Crescent, 0% visible
METAR KI39 080815Z AUTO 21007KT 10SM OVC050 06/M05 A2973 RMK AO2

10-Day Weather Forecast

Almanac

Astronomy

Feb. 08, 2016 Rise Set
Actual Time
Civil Twilight
Nautical Twilight
Astronomical Twilight
Moon
Length of Visible Light
Length of Day
Tomorrow will be .
, % of the Moon is Illuminated

Today's Extremes

State Highs State Lows

Community

WunderPhotos

Upload Photos

1,891,412 photos uploaded!

WunderBlog® & News

Nearby

Air Quality

  Air Quality AQ Index Pollutant
Not available.

Snow Depth

Station Depth Elevation

Earthquake Activity

City Distance Mag. Time & Date
Minimum magnitude displayed is 2.5.

Coastal Water Temperatures

Place Temperature

Stations

Nearby Weather Stations

Station Location Temp. Windchill Dew Point Humidity Wind Precip. Elev Updated Type
                   

Watches & Warnings

Winter Weather Advisory
Issued: 2:34 AM CST Feb. 8, 2016 – National Weather Service

... Winter Weather Advisory remains in effect from 5 PM EST /4 PM
CST/ this afternoon to 6 PM EST /5 PM CST/ Tuesday...

* timing... this evening through at least Tuesday evening.

* Main impact... periods of moderate to briefly heavy snow showers
will impact travel at times. Roads may become slick and snow
covered... especially secondary and untreated surfaces.

* Other impacts... gusty winds along with moderate snow showers may
reduce visibility at times.

Precautionary/preparedness actions...

Research shows that more traffic accidents occur with an inch or
less of snow... before drivers realize that traction is reduced.
Don't become a statistic... slow down and leave extra distance
between vehicles.



Ams